Time;durP1;ratioP1;P1;durP2;ratioP2;P2;SDS_P1;SDS_P2;PMS_P1;PMS_P2;Temp;Humidity;BMP_temperature;BMP_pressure;BME280_temperature;BME280_humidity;BME280_pressure;Samples;Min_cycle;Max_cycle;Signal;HPM_P1;HPM_P2
2023/04/13 00:01:25;;;;;;;;;;;16.90;56.70;;;;;;10178991;28;88949;-67
2023/04/13 00:06:27;;;;;;;;;;;16.90;56.70;;;;;;10178122;28;91716;-67
2023/04/13 00:11:30;;;;;;;;;;;16.90;56.70;;;;;;10178934;28;88832;-68
2023/04/13 00:16:32;;;;;;;;;;;16.90;56.70;;;;;;10161171;28;90265;-68
2023/04/13 00:21:35;;;;;;;;;;;16.90;56.70;;;;;;10177824;28;89120;-68
2023/04/13 00:26:37;;;;;;;;;;;16.80;57.50;;;;;;10176285;28;90352;-67
2023/04/13 00:31:39;;;;;;;;;;;16.80;56.60;;;;;;10191945;28;89030;-67
2023/04/13 00:36:41;;;;;;;;;;;16.80;56.60;;;;;;10177079;28;88729;-68
2023/04/13 00:41:43;;;;;;;;;;;16.80;56.60;;;;;;10177295;28;88745;-68
2023/04/13 00:46:46;;;;;;;;;;;16.80;56.70;;;;;;10176453;28;90057;-68
2023/04/13 00:51:49;;;;;;;;;;;16.80;56.60;;;;;;10176934;28;90071;-67
2023/04/13 00:56:53;;;;;;;;;;;16.80;56.60;;;;;;10176115;28;89636;-67
2023/04/13 01:02:00;;;;;;;;;;;16.80;56.70;;;;;;10176869;28;88176;-68
2023/04/13 01:07:07;;;;;;;;;;;16.80;56.60;;;;;;10175956;28;88874;-67
2023/04/13 01:12:21;;;;;;;;;;;16.80;56.60;;;;;;10176028;28;89131;-68
2023/04/13 01:17:25;;;;;;;;;;;16.70;56.70;;;;;;10167228;28;89569;-68
2023/04/13 01:22:28;;;;;;;;;;;16.70;56.70;;;;;;10176592;28;90114;-68
2023/04/13 01:27:46;;;;;;;;;;;16.70;56.80;;;;;;10174860;28;89278;-68
2023/04/13 01:32:50;;;;;;;;;;;16.70;56.70;;;;;;10177853;28;88849;-68
2023/04/13 01:37:52;;;;;;;;;;;16.70;56.70;;;;;;10160218;28;88915;-67
2023/04/13 01:42:54;;;;;;;;;;;16.70;56.70;;;;;;10189972;28;89387;-67
2023/04/13 01:48:10;;;;;;;;;;;16.70;56.70;;;;;;10176607;28;88486;-68
2023/04/13 01:53:15;;;;;;;;;;;16.70;56.80;;;;;;10176344;28;87861;-66
2023/04/13 01:58:18;;;;;;;;;;;16.70;56.90;;;;;;10176041;28;90065;-68
2023/04/13 02:03:21;;;;;;;;;;;16.60;56.80;;;;;;10157983;28;88239;-68
2023/04/13 02:08:23;;;;;;;;;;;16.70;56.90;;;;;;10174602;28;89761;-69
2023/04/13 02:13:25;;;;;;;;;;;16.60;56.90;;;;;;10174904;28;90378;-67
2023/04/13 02:18:27;;;;;;;;;;;16.70;57.00;;;;;;10175601;28;89986;-68
2023/04/13 02:23:29;;;;;;;;;;;16.60;56.90;;;;;;10174039;28;88648;-67
2023/04/13 02:28:30;;;;;;;;;;;16.60;56.90;;;;;;10174606;28;89101;-67
2023/04/13 02:33:33;;;;;;;;;;;16.60;56.80;;;;;;10174286;28;89097;-67
2023/04/13 02:38:36;;;;;;;;;;;16.60;56.90;;;;;;10173574;28;88248;-68
2023/04/13 02:43:37;;;;;;;;;;;16.60;57.00;;;;;;10175020;28;89356;-68
2023/04/13 02:48:39;;;;;;;;;;;16.60;57.00;;;;;;10172802;28;88883;-67
2023/04/13 02:53:41;;;;;;;;;;;16.60;57.00;;;;;;10173109;28;89155;-68
2023/04/13 02:58:43;;;;;;;;;;;16.60;57.00;;;;;;10172385;28;90822;-68
2023/04/13 03:03:45;;;;;;;;;;;16.60;57.10;;;;;;10173360;28;90006;-67
2023/04/13 03:08:46;;;;;;;;;;;16.60;57.10;;;;;;10157347;28;89106;-68
2023/04/13 03:13:48;;;;;;;;;;;16.60;57.10;;;;;;10157206;28;88784;-67
2023/04/13 03:18:51;;;;;;;;;;;16.60;57.20;;;;;;10155266;28;88526;-68
2023/04/13 03:23:52;;;;;;;;;;;16.60;57.20;;;;;;10172964;28;90053;-68
2023/04/13 03:28:54;;;;;;;;;;;16.50;57.20;;;;;;10146905;28;89055;-68
2023/04/13 03:33:57;;;;;;;;;;;16.50;57.20;;;;;;10174293;28;89417;-68
2023/04/13 03:39:00;;;;;;;;;;;16.50;57.30;;;;;;10171458;28;88839;-67
2023/04/13 03:44:03;;;;;;;;;;;16.50;57.30;;;;;;10154511;28;89338;-68
2023/04/13 05:07:57;;;;;;;;;;;16.90;56.60;;;;;;10135518;28;88718;-64
2023/04/13 05:12:58;;;;;;;;;;;17.00;56.30;;;;;;10136444;28;88994;-64
2023/04/13 05:18:00;;;;;;;;;;;17.00;56.30;;;;;;10137585;28;90128;-64
2023/04/13 05:23:02;;;;;;;;;;;17.00;56.20;;;;;;10135804;28;88494;-64
2023/04/13 05:28:04;;;;;;;;;;;17.00;56.20;;;;;;10137522;28;89048;-65
2023/04/13 05:33:07;;;;;;;;;;;17.00;56.30;;;;;;10138183;28;89297;-65
2023/04/13 05:38:09;;;;;;;;;;;16.90;56.50;;;;;;10136177;28;90150;-65
2023/04/13 05:43:12;;;;;;;;;;;16.90;56.50;;;;;;10137591;28;89939;-66
2023/04/13 05:48:13;;;;;;;;;;;16.90;57.00;;;;;;10170226;28;89509;-65
2023/04/13 05:53:15;;;;;;;;;;;16.90;57.20;;;;;;10237687;28;90290;-64
2023/04/13 05:58:20;;;;;;;;;;;16.90;57.20;;;;;;10236930;28;89565;-66
2023/04/13 06:03:22;;;;;;;;;;;16.90;58.20;;;;;;10236155;28;90336;-65
2023/04/13 06:08:31;;;;;;;;;;;16.90;58.30;;;;;;10254401;28;88334;-64
2023/04/13 06:13:32;;;;;;;;;;;16.90;58.70;;;;;;10255168;28;90287;-64
2023/04/13 06:18:34;;;;;;;;;;;17.00;59.10;;;;;;10253173;28;90199;-65
2023/04/13 06:23:36;;;;;;;;;;;17.00;59.30;;;;;;10256104;28;87874;-65
2023/04/13 06:28:38;;;;;;;;;;;16.90;59.30;;;;;;10254981;28;90061;-65
2023/04/13 06:33:40;;;;;;;;;;;16.90;58.80;;;;;;10254746;28;89488;-65
2023/04/13 06:38:42;;;;;;;;;;;16.90;58.70;;;;;;10253967;28;88821;-65
2023/04/13 06:43:43;;;;;;;;;;;16.80;58.60;;;;;;10254379;28;88033;-64
2023/04/13 06:48:46;;;;;;;;;;;16.80;58.60;;;;;;10237064;28;90344;-65
2023/04/13 06:53:48;;;;;;;;;;;16.80;58.60;;;;;;10253613;28;90014;-65
2023/04/13 06:58:50;;;;;;;;;;;16.70;58.50;;;;;;10251362;28;91013;-65
2023/04/13 07:03:52;;;;;;;;;;;16.70;58.50;;;;;;10235551;28;88064;-65
2023/04/13 07:08:54;;;;;;;;;;;16.70;58.50;;;;;;10251630;28;88432;-65
2023/04/13 07:13:56;;;;;;;;;;;16.70;58.50;;;;;;10253261;28;89512;-65
2023/04/13 07:18:59;;;;;;;;;;;16.70;58.50;;;;;;10235122;28;90212;-65
2023/04/13 07:24:01;;;;;;;;;;;16.60;58.40;;;;;;10253465;28;89460;-65
2023/04/13 07:29:03;;;;;;;;;;;16.70;58.60;;;;;;10251454;28;88835;-65
2023/04/13 07:34:05;;;;;;;;;;;16.70;58.50;;;;;;10251761;28;88144;-65
2023/04/13 07:39:08;;;;;;;;;;;16.60;58.50;;;;;;10234637;28;89853;-65
2023/04/13 07:44:10;;;;;;;;;;;16.60;58.50;;;;;;10252458;28;88542;-65
2023/04/13 07:49:12;;;;;;;;;;;16.60;58.60;;;;;;10252013;28;90208;-64
2023/04/13 07:54:14;;;;;;;;;;;16.60;58.60;;;;;;10251751;28;88910;-64
2023/04/13 07:59:17;;;;;;;;;;;16.50;58.60;;;;;;10251672;28;88963;-65
2023/04/13 08:04:20;;;;;;;;;;;16.50;58.60;;;;;;10252169;28;88363;-64
2023/04/13 08:09:23;;;;;;;;;;;16.50;58.60;;;;;;10251804;28;90026;-64
2023/04/13 08:14:24;;;;;;;;;;;16.50;58.80;;;;;;10258813;28;88443;-63
2023/04/13 08:19:26;;;;;;;;;;;16.50;58.70;;;;;;10258988;28;89969;-64
2023/04/13 08:24:28;;;;;;;;;;;16.50;58.70;;;;;;10259500;28;88846;-65
2023/04/13 08:29:30;;;;;;;;;;;16.50;58.80;;;;;;10240990;28;88867;-65
2023/04/13 08:34:32;;;;;;;;;;;16.50;58.70;;;;;;10256784;28;88225;-64
2023/04/13 08:39:33;;;;;;;;;;;16.50;58.60;;;;;;10258339;28;89087;-65
2023/04/13 08:44:38;;;;;;;;;;;16.50;58.70;;;;;;10258738;28;91309;-65
2023/04/13 08:49:41;;;;;;;;;;;16.50;58.70;;;;;;10258970;28;89423;-65
2023/04/13 08:54:44;;;;;;;;;;;16.50;58.70;;;;;;10257623;28;88625;-65
2023/04/13 08:59:48;;;;;;;;;;;16.50;58.60;;;;;;10258180;28;90229;-64
2023/04/13 09:04:52;;;;;;;;;;;16.50;58.60;;;;;;10257755;28;88943;-64
2023/04/13 09:09:56;;;;;;;;;;;16.50;58.60;;;;;;10237863;28;88974;-64
2023/04/13 09:14:58;;;;;;;;;;;16.50;58.50;;;;;;10256610;28;89163;-64
2023/04/13 09:20:15;;;;;;;;;;;16.50;58.50;;;;;;10255851;28;90370;-64
2023/04/13 09:25:23;;;;;;;;;;;16.50;58.50;;;;;;10256417;28;89349;-64
2023/04/13 09:30:26;;;;;;;;;;;16.50;58.40;;;;;;10257063;28;90219;-64
2023/04/13 09:35:28;;;;;;;;;;;16.50;58.30;;;;;;10239192;28;88554;-65
2023/04/13 09:40:31;;;;;;;;;;;16.50;58.30;;;;;;10238273;28;89082;-64
2023/04/13 09:45:37;;;;;;;;;;;16.50;58.20;;;;;;10257574;28;88584;-64
2023/04/13 09:50:38;;;;;;;;;;;16.50;58.20;;;;;;10255227;28;88786;-65
2023/04/13 09:55:40;;;;;;;;;;;16.50;58.10;;;;;;10256419;28;88841;-64
2023/04/13 10:00:43;;;;;;;;;;;16.50;58.20;;;;;;10255959;28;89565;-64
2023/04/13 10:05:46;;;;;;;;;;;16.60;58.20;;;;;;10255715;28;88190;-64
2023/04/13 10:10:51;;;;;;;;;;;16.50;58.10;;;;;;10238877;28;89487;-64
2023/04/13 10:16:04;;;;;;;;;;;16.60;57.90;;;;;;10256286;28;90433;-64
2023/04/13 10:21:06;;;;;;;;;;;16.60;58.00;;;;;;10237504;28;89880;-65
2023/04/13 10:26:08;;;;;;;;;;;16.60;57.80;;;;;;10237868;28;90450;-66
2023/04/13 10:31:10;;;;;;;;;;;16.60;57.70;;;;;;10253223;28;88996;-65
2023/04/13 10:36:11;;;;;;;;;;;16.60;57.80;;;;;;10254769;28;87999;-65
2023/04/13 10:41:23;;;;;;;;;;;16.60;57.70;;;;;;10255082;28;88091;-66
2023/04/13 10:46:25;;;;;;;;;;;16.60;57.70;;;;;;10254113;28;90095;-64
2023/04/13 10:51:43;;;;;;;;;;;16.60;57.60;;;;;;10252590;28;90871;-65
2023/04/13 10:56:54;;;;;;;;;;;16.60;57.50;;;;;;10236836;28;89160;-65
2023/04/13 11:01:57;;;;;;;;;;;16.60;57.50;;;;;;10251545;28;89270;-65
2023/04/13 11:06:58;;;;;;;;;;;16.60;57.50;;;;;;10254691;28;90280;-64
2023/04/13 11:12:00;;;;;;;;;;;16.50;57.30;;;;;;10253144;28;89123;-64
2023/04/13 11:17:03;;;;;;;;;;;16.50;57.40;;;;;;10253589;28;90060;-64
2023/04/13 11:22:05;;;;;;;;;;;16.50;57.50;;;;;;10252967;28;88408;-65
2023/04/13 11:27:16;;;;;;;;;;;16.50;57.50;;;;;;10254592;28;88511;-66
2023/04/13 11:32:19;;;;;;;;;;;16.50;57.40;;;;;;10252566;28;89291;-66
2023/04/13 11:37:21;;;;;;;;;;;16.50;57.40;;;;;;10251059;28;89172;-65
2023/04/13 11:42:23;;;;;;;;;;;16.50;57.30;;;;;;10250436;28;89597;-65
2023/04/13 11:47:24;;;;;;;;;;;16.50;57.30;;;;;;10233856;28;90293;-65
2023/04/13 11:52:26;;;;;;;;;;;16.60;57.30;;;;;;10252653;28;90060;-65
2023/04/13 11:57:28;;;;;;;;;;;16.60;57.20;;;;;;10251965;28;89874;-65
2023/04/13 12:02:33;;;;;;;;;;;16.60;57.20;;;;;;10253027;28;90091;-65
2023/04/13 12:07:47;;;;;;;;;;;16.60;57.20;;;;;;10251576;28;89051;-65
2023/04/13 12:12:59;;;;;;;;;;;16.60;57.20;;;;;;10252691;28;90063;-65
2023/04/13 12:18:19;;;;;;;;;;;16.60;57.20;;;;;;10251959;28;87448;-65
2023/04/13 12:23:28;;;;;;;;;;;16.60;57.10;;;;;;10251516;28;89020;-65
2023/04/13 12:28:31;;;;;;;;;;;16.60;57.10;;;;;;10252694;28;89123;-65
2023/04/13 12:33:35;;;;;;;;;;;16.60;57.30;;;;;;10249800;28;90739;-65
2023/04/13 12:38:37;;;;;;;;;;;16.60;57.20;;;;;;10251567;28;90103;-65
2023/04/13 12:43:39;;;;;;;;;;;16.60;57.10;;;;;;10251393;28;90047;-65
2023/04/13 12:48:40;;;;;;;;;;;16.60;57.10;;;;;;10250617;28;89864;-65
2023/04/13 12:53:42;;;;;;;;;;;16.60;57.10;;;;;;10233464;28;88185;-65
2023/04/13 12:58:44;;;;;;;;;;;16.70;57.30;;;;;;10251804;28;88988;-65
2023/04/13 13:03:46;;;;;;;;;;;16.70;57.20;;;;;;10240259;28;88992;-65
2023/04/13 13:08:49;;;;;;;;;;;16.60;57.10;;;;;;10259179;28;88441;-66
2023/04/13 13:13:51;;;;;;;;;;;16.60;57.10;;;;;;10257540;28;90097;-66
2023/04/13 13:18:52;;;;;;;;;;;16.60;57.10;;;;;;10240276;28;89020;-66
2023/04/13 13:23:54;;;;;;;;;;;16.60;57.10;;;;;;10255980;28;90178;-63
2023/04/13 13:28:56;;;;;;;;;;;16.60;57.10;;;;;;10257869;28;89656;-64
2023/04/13 13:33:58;;;;;;;;;;;16.60;57.10;;;;;;10256504;28;88830;-64
2023/04/13 13:39:00;;;;;;;;;;;16.60;57.10;;;;;;10255649;28;89049;-65
2023/04/13 13:44:02;;;;;;;;;;;16.60;57.10;;;;;;10254957;28;88775;-63
2023/04/13 13:49:04;;;;;;;;;;;16.60;57.00;;;;;;10255400;28;89140;-64
2023/04/13 13:54:06;;;;;;;;;;;16.50;57.00;;;;;;10239298;28;90233;-64
2023/04/13 13:59:07;;;;;;;;;;;16.60;57.20;;;;;;10256518;28;88453;-65
2023/04/13 14:04:12;;;;;;;;;;;16.60;57.10;;;;;;10252567;28;89299;-65
2023/04/13 14:09:13;;;;;;;;;;;16.60;57.10;;;;;;10255406;28;88902;-64
2023/04/13 14:14:15;;;;;;;;;;;16.60;57.00;;;;;;10254100;28;89151;-64
2023/04/13 14:19:23;;;;;;;;;;;16.60;56.90;;;;;;10255705;28;90045;-65
2023/04/13 14:24:25;;;;;;;;;;;16.60;57.00;;;;;;10254597;28;88727;-65
2023/04/13 14:29:27;;;;;;;;;;;16.60;57.00;;;;;;10236634;28;90553;-65
2023/04/13 14:34:28;;;;;;;;;;;16.60;57.00;;;;;;10237805;28;89046;-64
2023/04/13 14:39:30;;;;;;;;;;;16.60;57.00;;;;;;10236556;28;89183;-65
2023/04/13 14:44:32;;;;;;;;;;;16.60;57.00;;;;;;10254233;28;90520;-65
2023/04/13 14:49:34;;;;;;;;;;;16.60;57.10;;;;;;10252919;28;88220;-66
2023/04/13 14:54:37;;;;;;;;;;;16.60;57.10;;;;;;10252919;28;89332;-65
2023/04/13 14:59:39;;;;;;;;;;;16.60;57.10;;;;;;10254356;28;89656;-65
2023/04/13 15:04:41;;;;;;;;;;;16.60;57.00;;;;;;10252038;28;90284;-65
2023/04/13 15:09:43;;;;;;;;;;;16.60;57.10;;;;;;10254348;28;88491;-65
2023/04/13 15:14:45;;;;;;;;;;;16.70;57.10;;;;;;10236471;28;89048;-65
2023/04/13 15:19:47;;;;;;;;;;;16.70;57.20;;;;;;10251891;28;89008;-65
2023/04/13 15:24:49;;;;;;;;;;;16.90;57.30;;;;;;10253561;28;88165;-65
2023/04/13 15:29:55;;;;;;;;;;;17.10;57.00;;;;;;10254190;28;91335;-64
2023/04/13 15:34:57;;;;;;;;;;;17.40;56.60;;;;;;10252962;28;88661;-63
2023/04/13 15:39:59;;;;;;;;;;;17.50;56.10;;;;;;10253997;28;88127;-65
2023/04/13 15:45:01;;;;;;;;;;;17.70;56.00;;;;;;10252288;28;89137;-65
2023/04/13 15:50:03;;;;;;;;;;;17.80;56.00;;;;;;10253055;28;89976;-65
2023/04/13 15:55:06;;;;;;;;;;;18.00;55.90;;;;;;10251999;28;89041;-65
2023/04/13 16:00:08;;;;;;;;;;;18.30;55.40;;;;;;10235011;28;88356;-66
2023/04/13 16:05:10;;;;;;;;;;;18.40;55.70;;;;;;10235382;28;89857;-65
2023/04/13 16:10:15;;;;;;;;;;;18.50;57.80;;;;;;10252650;28;88110;-66
2023/04/13 16:15:18;;;;;;;;;;;18.60;61.70;;;;;;10251746;28;88054;-67
2023/04/13 16:20:21;;;;;;;;;;;18.70;62.40;;;;;;10253735;28;90105;-65
2023/04/13 16:25:22;;;;;;;;;;;18.80;64.10;;;;;;10250545;28;89075;-66
2023/04/13 16:30:24;;;;;;;;;;;19.00;65.70;;;;;;10253507;28;87761;-65
2023/04/13 16:35:26;;;;;;;;;;;19.20;64.90;;;;;;10259403;28;89833;-65
2023/04/13 16:40:28;;;;;;;;;;;19.30;64.60;;;;;;10241022;28;89677;-65
2023/04/13 16:45:30;;;;;;;;;;;19.30;63.40;;;;;;10240121;28;90886;-65
2023/04/13 16:50:32;;;;;;;;;;;19.20;62.40;;;;;;10256889;28;89675;-64
2023/04/13 16:55:34;;;;;;;;;;;19.20;61.70;;;;;;10240984;28;91847;-65
2023/04/13 17:00:35;;;;;;;;;;;19.10;62.00;;;;;;10258038;28;88909;-65
2023/04/13 17:05:37;;;;;;;;;;;19.00;61.70;;;;;;10257995;28;90329;-65
2023/04/13 17:10:39;;;;;;;;;;;18.90;61.40;;;;;;10240737;28;90047;-65
2023/04/13 17:15:41;;;;;;;;;;;18.80;61.40;;;;;;10257083;28;88872;-65
2023/04/13 17:20:42;;;;;;;;;;;18.70;61.30;;;;;;10255667;28;89518;-65
2023/04/13 17:25:44;;;;;;;;;;;18.60;61.30;;;;;;10239109;28;88781;-65
2023/04/13 17:30:47;;;;;;;;;;;18.50;61.40;;;;;;10256844;28;90256;-65
2023/04/13 17:35:52;;;;;;;;;;;18.40;61.40;;;;;;10256774;28;90987;-65
2023/04/13 17:40:54;;;;;;;;;;;18.30;61.50;;;;;;10256893;28;89837;-65
2023/04/13 17:45:56;;;;;;;;;;;18.30;61.50;;;;;;10253421;28;90261;-65
2023/04/13 17:50:58;;;;;;;;;;;18.20;61.90;;;;;;10255611;28;90108;-65
2023/04/13 17:55:59;;;;;;;;;;;18.20;61.90;;;;;;10254507;28;90165;-66
2023/04/13 18:01:11;;;;;;;;;;;18.10;61.30;;;;;;10238002;28;88713;-66
2023/04/13 18:06:12;;;;;;;;;;;18.10;61.20;;;;;;10237700;28;90074;-66
2023/04/13 18:11:14;;;;;;;;;;;18.10;61.20;;;;;;10256603;28;88041;-65
2023/04/13 18:16:16;;;;;;;;;;;18.00;61.10;;;;;;10255491;28;89166;-65
2023/04/13 18:21:21;;;;;;;;;;;18.00;61.10;;;;;;10253542;28;90274;-66
2023/04/13 18:26:22;;;;;;;;;;;18.00;61.20;;;;;;10254156;28;90732;-66
2023/04/13 18:31:24;;;;;;;;;;;18.00;61.10;;;;;;10255363;28;89249;-66
2023/04/13 18:36:26;;;;;;;;;;;18.00;61.10;;;;;;10254233;28;88087;-66
2023/04/13 18:41:30;;;;;;;;;;;18.00;61.20;;;;;;10252847;28;89058;-66
2023/04/13 18:46:32;;;;;;;;;;;17.90;61.00;;;;;;10252016;28;90046;-66
2023/04/13 18:51:33;;;;;;;;;;;17.90;60.70;;;;;;10253607;28;89286;-66
2023/04/13 18:56:35;;;;;;;;;;;18.00;60.50;;;;;;10254195;28;89886;-66
2023/04/13 19:01:37;;;;;;;;;;;17.90;60.20;;;;;;10254854;28;88246;-65
2023/04/13 19:06:38;;;;;;;;;;;17.90;60.00;;;;;;10255123;28;88506;-65
2023/04/13 19:11:45;;;;;;;;;;;17.90;60.00;;;;;;10254545;28;88913;-65
2023/04/13 19:16:46;;;;;;;;;;;17.90;59.80;;;;;;10235461;28;90660;-65
2023/04/13 19:21:52;;;;;;;;;;;17.90;59.40;;;;;;10252517;28;89998;-65
2023/04/13 19:26:55;;;;;;;;;;;18.00;59.20;;;;;;10252022;28;89953;-65
2023/04/13 19:31:59;;;;;;;;;;;18.00;59.20;;;;;;10234313;28;109467;-65
2023/04/13 19:37:00;;;;;;;;;;;18.00;59.10;;;;;;10253657;28;90101;-65
2023/04/13 19:42:02;;;;;;;;;;;18.00;59.10;;;;;;10252092;28;90088;-65
2023/04/13 19:47:04;;;;;;;;;;;18.00;59.10;;;;;;10251936;28;88973;-65
2023/04/13 19:52:09;;;;;;;;;;;18.00;59.10;;;;;;10252918;28;88426;-65
2023/04/13 19:57:11;;;;;;;;;;;18.00;59.10;;;;;;10252311;28;88322;-65
2023/04/13 20:02:13;;;;;;;;;;;17.90;59.10;;;;;;10251831;28;88892;-65
2023/04/13 20:07:16;;;;;;;;;;;17.90;59.30;;;;;;10236749;28;89779;-66
2023/04/13 20:12:17;;;;;;;;;;;17.80;59.20;;;;;;10259206;28;90005;-63
2023/04/13 20:17:19;;;;;;;;;;;17.80;59.30;;;;;;10258743;28;89538;-65
2023/04/13 20:22:21;;;;;;;;;;;17.80;59.30;;;;;;10240066;28;89041;-65
2023/04/13 20:27:23;;;;;;;;;;;17.70;59.30;;;;;;10241163;28;89709;-65
2023/04/13 20:32:25;;;;;;;;;;;17.70;59.40;;;;;;10258912;28;90139;-64
2023/04/13 20:37:27;;;;;;;;;;;17.70;59.30;;;;;;10240262;28;89287;-65
2023/04/13 20:42:32;;;;;;;;;;;17.70;59.40;;;;;;10259587;28;87718;-64
2023/04/13 20:47:34;;;;;;;;;;;17.60;59.30;;;;;;10257706;28;90405;-65
2023/04/13 20:52:40;;;;;;;;;;;17.60;59.40;;;;;;10257156;28;89259;-65
2023/04/13 20:57:42;;;;;;;;;;;17.50;59.20;;;;;;10256217;28;90756;-66
2023/04/13 21:02:47;;;;;;;;;;;17.50;59.30;;;;;;10257825;28;88951;-65
2023/04/13 21:07:50;;;;;;;;;;;17.50;59.20;;;;;;10257537;28;88995;-66
2023/04/13 21:12:52;;;;;;;;;;;17.50;59.10;;;;;;10238383;28;89059;-66
2023/04/13 21:17:54;;;;;;;;;;;17.50;59.10;;;;;;10255295;28;89238;-66
2023/04/13 21:22:56;;;;;;;;;;;17.50;59.10;;;;;;10255887;28;90181;-64
2023/04/13 21:27:57;;;;;;;;;;;17.40;58.90;;;;;;10256186;28;88844;-65
2023/04/13 21:32:59;;;;;;;;;;;17.40;58.80;;;;;;10257278;28;88750;-65
2023/04/13 21:38:03;;;;;;;;;;;17.40;58.70;;;;;;10256990;28;90060;-65
2023/04/13 21:43:05;;;;;;;;;;;17.40;58.60;;;;;;10239380;28;89067;-65
2023/04/13 21:48:07;;;;;;;;;;;17.30;58.50;;;;;;10256289;28;89910;-65
2023/04/13 21:53:09;;;;;;;;;;;17.30;58.50;;;;;;10256522;28;89497;-65
2023/04/13 21:58:10;;;;;;;;;;;17.30;58.50;;;;;;10257296;28;88804;-65
2023/04/13 22:03:12;;;;;;;;;;;17.30;58.30;;;;;;10256816;28;88690;-64
2023/04/13 22:08:14;;;;;;;;;;;17.20;58.20;;;;;;10256176;28;90164;-65
2023/04/13 22:13:15;;;;;;;;;;;17.20;58.20;;;;;;10256246;28;89948;-65
2023/04/13 22:18:17;;;;;;;;;;;17.20;58.10;;;;;;10254916;28;88139;-64
2023/04/13 22:23:19;;;;;;;;;;;17.10;58.00;;;;;;10256255;28;88366;-65
2023/04/13 22:28:21;;;;;;;;;;;17.10;58.00;;;;;;10236832;28;89995;-64
2023/04/13 22:33:22;;;;;;;;;;;17.10;58.00;;;;;;10254342;28;89083;-65
2023/04/13 22:38:24;;;;;;;;;;;17.10;57.90;;;;;;10253721;28;90027;-64
2023/04/13 22:43:26;;;;;;;;;;;17.10;57.90;;;;;;10255488;28;89118;-65
2023/04/13 22:48:28;;;;;;;;;;;17.00;57.80;;;;;;10236309;28;89968;-66
2023/04/13 22:53:30;;;;;;;;;;;17.00;57.80;;;;;;10254691;28;89893;-65
2023/04/13 22:58:31;;;;;;;;;;;17.00;57.70;;;;;;10254124;28;88468;-64
2023/04/13 23:03:33;;;;;;;;;;;17.00;57.60;;;;;;10253987;28;90116;-64
2023/04/13 23:08:35;;;;;;;;;;;16.90;57.60;;;;;;10254678;28;89608;-65
2023/04/13 23:13:37;;;;;;;;;;;16.90;57.50;;;;;;10254271;28;88304;-65
2023/04/13 23:18:38;;;;;;;;;;;16.90;57.50;;;;;;10253188;28;88807;-65
2023/04/13 23:23:40;;;;;;;;;;;16.90;57.40;;;;;;10253979;28;88982;-64
2023/04/13 23:28:42;;;;;;;;;;;16.90;57.40;;;;;;10253032;28;88837;-64
2023/04/13 23:33:44;;;;;;;;;;;16.90;57.40;;;;;;10252882;28;90000;-64
2023/04/13 23:38:46;;;;;;;;;;;16.90;57.30;;;;;;10253330;28;88523;-64
2023/04/13 23:43:50;;;;;;;;;;;16.90;57.20;;;;;;10252382;28;89053;-64
2023/04/13 23:48:52;;;;;;;;;;;16.90;57.10;;;;;;10251097;28;88998;-64
2023/04/13 23:53:53;;;;;;;;;;;16.90;57.20;;;;;;10235334;28;89042;-65
2023/04/13 23:58:55;;;;;;;;;;;16.90;57.20;;;;;;10234132;28;89547;-65
